createdAt,value
2018-06-29T04:35:42.292Z,99.90
2018-06-29T04:38:13.516Z,99.90
2018-06-29T04:40:44.731Z,99.90
2018-06-29T04:43:16.585Z,99.90
2018-06-29T04:45:47.520Z,99.90
2018-06-29T04:48:18.683Z,99.90
2018-06-29T04:50:49.876Z,99.90
2018-06-29T04:53:21.394Z,99.90
2018-06-29T04:55:52.447Z,99.90
2018-06-29T04:58:23.695Z,99.90
2018-06-29T05:00:54.720Z,99.90
2018-06-29T05:03:25.885Z,99.90
2018-06-29T05:05:57.560Z,99.90
2018-06-29T05:08:28.850Z,99.90
2018-06-29T05:10:59.592Z,99.90
2018-06-29T05:13:30.806Z,99.90
2018-06-29T05:16:02.034Z,99.90
2018-06-29T05:18:33.522Z,99.90
2018-06-29T05:21:04.580Z,99.90
2018-06-29T05:23:35.776Z,99.90
2018-06-29T05:26:06.770Z,99.90
2018-06-29T05:28:37.794Z,99.90
2018-06-29T05:33:40.100Z,99.90
2018-06-29T05:36:11.343Z,99.90
2018-06-29T05:38:42.516Z,99.90
2018-06-29T05:41:15.888Z,99.90
2018-06-29T05:43:47.080Z,99.90
2018-06-29T05:46:18.290Z,99.90
2018-06-29T05:48:49.292Z,99.90
2018-06-29T05:51:20.472Z,99.90
2018-06-29T05:53:51.632Z,99.90
2018-06-29T05:56:22.861Z,99.90
2018-06-29T05:58:54.737Z,99.90
2018-06-29T06:01:26.120Z,99.90
2018-06-29T06:03:57.816Z,99.90
2018-06-29T06:06:29.282Z,99.90
2018-06-29T06:09:01.271Z,99.90
2018-06-29T06:11:32.843Z,99.90
2018-06-29T06:14:04.450Z,99.90
2018-06-29T06:16:35.492Z,99.90
2018-06-29T06:19:23.126Z,99.90
2018-06-29T06:21:55.124Z,99.90
2018-06-29T06:24:26.344Z,99.90
2018-06-29T06:26:57.608Z,99.90
2018-06-29T06:29:28.528Z,99.90
2018-06-29T06:31:59.511Z,99.90
2018-06-29T06:34:30.553Z,99.90
2018-06-29T06:37:01.749Z,99.90
2018-06-29T06:42:03.436Z,99.90
2018-06-29T06:44:34.572Z,99.90
2018-06-29T06:47:05.845Z,99.90
2018-06-29T06:49:36.780Z,99.90
2018-06-29T06:52:07.924Z,99.90
2018-06-29T06:54:39.157Z,99.90
2018-06-29T06:57:10.598Z,99.90
2018-06-29T06:59:42.121Z,99.90
2018-06-29T07:02:13.091Z,99.90
2018-06-29T07:04:44.080Z,99.90
2018-06-29T07:07:15.074Z,99.90
2018-06-29T07:09:46.574Z,99.90
2018-06-29T07:12:18.173Z,99.90
2018-06-29T07:14:49.667Z,99.90
2018-06-29T07:17:21.132Z,99.90
2018-06-29T07:19:52.702Z,99.90
2018-06-29T07:22:24.051Z,99.90
2018-06-29T07:24:55.197Z,99.90
2018-06-29T07:27:26.431Z,99.90
2018-06-29T07:29:57.878Z,99.90
2018-06-29T07:32:29.129Z,99.90
2018-06-29T07:35:00.337Z,99.90
2018-06-29T07:40:01.891Z,99.90
2018-06-29T07:42:32.935Z,99.90
2018-06-29T07:45:04.488Z,99.90
2018-06-29T07:47:35.736Z,99.90
2018-06-29T07:50:07.215Z,99.90
2018-06-29T07:52:38.230Z,99.90
2018-06-29T07:55:09.543Z,99.90
2018-06-29T07:57:40.632Z,99.90
2018-06-29T08:00:11.859Z,99.90
2018-06-29T08:02:43.125Z,99.90
2018-06-29T08:05:14.034Z,99.90
2018-06-29T08:07:45.200Z,99.90
2018-06-29T08:10:16.188Z,99.90
2018-06-29T08:12:47.398Z,99.90
2018-06-29T08:15:18.559Z,99.90
2018-06-29T08:17:50.103Z,99.90
2018-06-29T08:20:21.329Z,99.90
2018-06-29T08:22:52.551Z,99.90
2018-06-29T08:25:23.563Z,99.90
2018-06-29T08:27:55.706Z,99.90
2018-06-29T08:30:26.907Z,99.90
2018-06-29T08:32:57.902Z,99.90
2018-06-29T08:35:29.450Z,99.90
2018-06-29T08:38:00.776Z,99.90
2018-06-29T08:40:31.872Z,99.90
2018-06-29T08:43:03.219Z,99.90
2018-06-29T08:45:34.483Z,99.90
2018-06-29T08:48:05.528Z,99.90
2018-06-29T08:50:36.691Z,99.90
2018-06-29T08:53:08.074Z,99.90
2018-06-29T08:55:39.199Z,99.90
2018-06-29T08:58:10.492Z,99.90
2018-06-29T09:00:41.412Z,99.90
2018-06-29T09:03:19.472Z,99.90
2018-06-29T09:05:50.663Z,99.90
2018-06-29T09:08:21.860Z,99.90
2018-06-29T09:10:52.865Z,99.90
2018-06-29T09:15:54.254Z,99.90
2018-06-29T09:18:25.259Z,99.90
2018-06-29T09:20:56.423Z,99.90
2018-06-29T09:23:27.627Z,99.90
2018-06-29T09:25:58.819Z,99.90
2018-06-29T09:28:30.366Z,99.90
2018-06-29T09:31:01.924Z,99.90
2018-06-29T09:33:33.496Z,99.90
2018-06-29T09:36:04.775Z,99.90
2018-06-29T09:38:36.074Z,99.90
2018-06-29T09:41:07.135Z,99.90
2018-06-29T09:43:38.207Z,99.90
2018-06-29T09:46:09.356Z,99.90
2018-06-29T09:48:41.066Z,99.90
2018-06-29T09:51:12.324Z,99.90
2018-06-29T09:53:43.531Z,99.90
2018-06-29T09:56:14.671Z,99.90
2018-06-29T09:58:45.667Z,99.90
2018-06-29T10:01:17.024Z,99.90
2018-06-29T10:03:47.879Z,99.90
2018-06-29T10:06:20.152Z,99.90
2018-06-29T10:08:52.417Z,99.90
2018-06-29T10:11:23.459Z,99.90
2018-06-29T10:13:55.119Z,99.90
2018-06-29T10:16:26.173Z,99.90
2018-06-29T10:18:57.407Z,99.90
2018-06-29T10:21:28.783Z,99.90
2018-06-29T10:26:30.918Z,99.90
2018-06-29T10:29:02.426Z,99.90
2018-06-29T10:31:33.519Z,99.90
2018-06-29T10:34:04.759Z,99.90
2018-06-29T10:36:35.876Z,99.90
2018-06-29T10:39:13.097Z,99.90
2018-06-29T10:41:45.515Z,99.70
2018-06-29T10:44:16.578Z,99.90
2018-06-29T10:46:47.788Z,99.90
2018-06-29T10:51:49.567Z,99.90
2018-06-29T10:54:20.543Z,99.90
2018-06-29T10:56:51.715Z,99.90
2018-06-29T10:59:22.987Z,99.90
2018-06-29T11:01:54.109Z,99.90
2018-06-29T11:04:25.282Z,99.90
2018-06-29T11:06:57.430Z,96.90
2018-06-29T11:09:28.463Z,96.40
2018-06-29T11:11:59.935Z,94.10
2018-06-29T11:14:31.088Z,96.60
2018-06-29T11:17:02.330Z,97.30
2018-06-29T11:19:33.218Z,97.00
2018-06-29T11:22:04.219Z,97.30
2018-06-29T11:24:35.231Z,97.80
2018-06-29T11:27:06.396Z,97.60
2018-06-29T11:29:37.946Z,97.50
2018-06-29T11:32:10.202Z,96.80
2018-06-29T11:34:41.988Z,95.50
2018-06-29T11:37:13.223Z,94.60
2018-06-29T11:39:44.133Z,95.30
2018-06-29T11:42:15.323Z,94.30
2018-06-29T11:44:46.318Z,94.20
2018-06-29T11:47:17.543Z,93.30
2018-06-29T11:49:48.561Z,94.10
2018-06-29T11:52:19.695Z,93.40
2018-06-29T11:54:50.935Z,91.90
2018-06-29T11:57:22.209Z,92.50
2018-06-29T11:59:53.319Z,91.00
2018-06-29T12:02:24.463Z,91.90
2018-06-29T12:04:55.987Z,91.50
2018-06-29T12:07:27.602Z,90.20
2018-06-29T12:09:58.818Z,90.50
2018-06-29T12:12:30.015Z,88.40
2018-06-29T12:15:01.110Z,90.70
2018-06-29T12:20:03.019Z,82.40
2018-06-29T12:22:34.951Z,81.20
2018-06-29T12:25:06.019Z,81.60
2018-06-29T12:27:37.191Z,83.80
2018-06-29T12:30:08.392Z,85.00
2018-06-29T12:32:39.562Z,84.30
2018-06-29T12:39:59.160Z,78.90
2018-06-29T12:42:30.540Z,74.00
2018-06-29T12:45:01.583Z,75.30
2018-06-29T12:50:02.767Z,71.60
2018-06-29T12:52:33.982Z,70.70
2018-06-29T12:55:05.306Z,66.80
2018-06-29T12:57:36.548Z,68.80
2018-06-29T13:00:08.191Z,70.00
2018-06-29T13:02:39.240Z,68.50
2018-06-29T13:05:10.295Z,70.70
2018-06-29T13:07:41.523Z,71.90
2018-06-29T13:10:12.743Z,72.60
2018-06-29T13:12:43.860Z,69.70
2018-06-29T13:15:14.972Z,68.70
2018-06-29T13:17:46.041Z,68.60
2018-06-29T13:20:17.117Z,68.80
2018-06-29T13:22:48.231Z,69.40
2018-06-29T13:25:19.501Z,62.70
2018-06-29T13:30:20.896Z,65.00
2018-06-29T13:32:51.843Z,68.00
2018-06-29T13:35:23.033Z,68.00
2018-06-29T13:37:54.048Z,70.80
2018-06-29T13:42:56.004Z,69.40
2018-06-29T13:45:28.022Z,65.40
2018-06-29T13:47:59.164Z,64.40
2018-06-29T13:50:30.696Z,59.70
2018-06-29T13:53:02.743Z,62.40
2018-06-29T13:55:34.296Z,60.60
2018-06-29T13:58:05.359Z,58.90
2018-06-29T14:00:36.509Z,61.80
2018-06-29T14:03:07.774Z,57.50
2018-06-29T14:05:38.894Z,59.00
2018-06-29T14:08:10.421Z,58.70
2018-06-29T14:10:41.669Z,58.20
2018-06-29T14:13:12.891Z,59.20
2018-06-29T14:18:14.643Z,59.70
2018-06-29T14:20:45.887Z,59.30
2018-06-29T14:23:17.036Z,59.00
2018-06-29T14:25:48.228Z,58.00
2018-06-29T14:28:19.242Z,57.70
2018-06-29T14:30:50.441Z,59.50
2018-06-29T14:33:22.213Z,60.30
2018-06-29T14:35:54.132Z,62.70
2018-06-29T14:38:25.470Z,61.90
2018-06-29T14:41:59.171Z,60.30
2018-06-29T14:44:30.077Z,58.90
2018-06-29T14:47:01.102Z,63.30
2018-06-29T14:49:32.259Z,61.10
2018-06-29T14:52:03.518Z,62.70
2018-06-29T14:54:37.631Z,62.60
2018-06-29T14:57:09.441Z,60.80
2018-06-29T14:59:40.537Z,65.40
2018-06-29T15:02:12.061Z,60.20
2018-06-29T15:04:42.926Z,59.40
2018-06-29T15:07:14.127Z,60.20
2018-06-29T15:09:45.320Z,59.60
2018-06-29T15:12:16.511Z,58.40
2018-06-29T15:14:47.604Z,60.60
2018-06-29T15:17:19.312Z,60.40
2018-06-29T15:22:21.619Z,61.80
2018-06-29T15:24:53.180Z,59.80
2018-06-29T15:27:24.299Z,59.60
2018-06-29T15:29:55.475Z,59.50
2018-06-29T15:32:26.491Z,59.30
2018-06-29T15:34:57.643Z,58.00
2018-06-29T15:37:28.850Z,59.20
2018-06-29T15:40:00.064Z,59.70
2018-06-29T15:42:31.222Z,60.10
2018-06-29T15:45:02.411Z,59.40
2018-06-29T15:47:33.567Z,62.40
2018-06-29T15:50:05.236Z,61.70
2018-06-29T15:52:36.439Z,62.90
2018-06-29T15:55:07.425Z,60.50
2018-06-29T15:57:39.010Z,63.50
2018-06-29T16:00:11.962Z,63.40
2018-06-29T16:02:43.424Z,61.50
2018-06-29T16:05:15.206Z,60.90
2018-06-29T16:07:47.511Z,60.70
2018-06-29T16:10:18.926Z,62.80
2018-06-29T16:12:50.561Z,60.80
2018-06-29T16:15:22.015Z,65.40
2018-06-29T16:17:53.926Z,61.30
2018-06-29T16:20:25.023Z,61.70
2018-06-29T16:22:56.367Z,59.90
2018-06-29T16:25:27.318Z,60.10
2018-06-29T16:27:58.772Z,59.90
2018-06-29T16:30:30.572Z,60.70
2018-06-29T16:33:01.748Z,60.50
2018-06-29T16:35:32.853Z,59.40
2018-06-29T16:38:03.970Z,60.50
2018-06-29T16:40:35.088Z,59.00
2018-06-29T16:43:06.324Z,60.00
2018-06-29T16:45:37.359Z,63.90
2018-06-29T16:48:12.000Z,59.90
2018-06-29T16:50:46.128Z,59.20
2018-06-29T16:53:20.495Z,58.70
2018-06-29T16:55:54.250Z,59.20
2018-06-29T16:58:29.101Z,58.60
2018-06-29T17:01:02.374Z,61.80
2018-06-29T17:03:36.204Z,60.90
2018-06-29T17:06:10.095Z,59.40
2018-06-29T17:08:43.835Z,63.10
2018-06-29T17:11:20.509Z,61.70
2018-06-29T17:13:54.501Z,62.60
2018-06-29T17:16:28.472Z,59.10
2018-06-29T17:19:04.215Z,59.90
2018-06-29T17:24:11.319Z,59.70
2018-06-29T17:29:23.276Z,61.40
2018-06-29T17:31:59.162Z,60.70
2018-06-29T17:34:33.173Z,60.00
2018-06-29T17:37:08.821Z,59.10
2018-06-29T17:39:42.436Z,63.40
2018-06-29T17:42:17.173Z,59.60
2018-06-29T17:44:52.545Z,60.00
2018-06-29T17:47:26.660Z,61.00
2018-06-29T17:50:01.732Z,60.20
2018-06-29T17:52:35.388Z,59.80
2018-06-29T17:55:09.981Z,60.30
2018-06-29T17:57:44.267Z,59.40
2018-06-29T18:00:18.717Z,58.70
2018-06-29T18:02:52.517Z,57.70
2018-06-29T18:05:26.357Z,58.20
2018-06-29T18:07:59.965Z,57.90
2018-06-29T18:10:33.531Z,58.70
2018-06-29T18:13:07.068Z,62.40
2018-06-29T18:15:40.407Z,64.40
2018-06-29T18:18:13.965Z,64.80
2018-06-29T18:20:47.485Z,66.00
2018-06-29T18:23:21.278Z,66.60
2018-06-29T18:25:54.615Z,67.30
2018-06-29T18:28:26.143Z,67.50
2018-06-29T18:30:57.259Z,68.20
2018-06-29T18:33:28.463Z,69.10
2018-06-29T18:35:59.966Z,70.70
2018-06-29T18:38:31.615Z,71.70
2018-06-29T18:41:02.607Z,73.60
2018-06-29T18:43:33.566Z,74.50
2018-06-29T18:46:04.852Z,75.40
2018-06-29T18:48:35.959Z,76.20
2018-06-29T18:51:07.011Z,76.70
2018-06-29T18:53:38.026Z,77.30
2018-06-29T18:56:08.939Z,78.20
2018-06-29T18:58:40.155Z,78.20
2018-06-29T19:03:42.855Z,79.10
2018-06-29T19:06:13.901Z,79.30
2018-06-29T19:08:45.147Z,79.70
2018-06-29T19:11:16.297Z,79.70
2018-06-29T19:13:47.503Z,79.80
2018-06-29T19:18:49.363Z,81.10
2018-06-29T19:21:20.506Z,81.70
2018-06-29T19:23:51.687Z,82.50
2018-06-29T19:26:23.167Z,83.10
2018-06-29T19:28:54.267Z,83.50
2018-06-29T19:31:25.259Z,83.70
2018-06-29T19:33:56.757Z,84.30
2018-06-29T19:36:28.089Z,84.70
2018-06-29T19:38:59.937Z,85.40
2018-06-29T19:41:31.061Z,86.20
2018-06-29T19:44:02.231Z,86.30
2018-06-29T19:46:33.900Z,86.60
2018-06-29T19:49:05.495Z,86.60
2018-06-29T19:51:36.728Z,86.60
2018-06-29T19:54:08.061Z,85.80
2018-06-29T19:56:39.605Z,86.20
2018-06-29T19:59:10.927Z,86.20
2018-06-29T20:01:41.939Z,86.30
2018-06-29T20:04:13.115Z,86.60
2018-06-29T20:06:44.228Z,87.10
2018-06-29T20:09:15.467Z,87.80
2018-06-29T20:11:46.441Z,88.10
2018-06-29T20:14:17.867Z,88.70
2018-06-29T20:16:48.833Z,89.10
2018-06-29T20:19:20.020Z,89.70
2018-06-29T20:21:51.679Z,89.80
2018-06-29T20:24:23.524Z,90.00
2018-06-29T20:26:54.825Z,90.10
2018-06-29T20:29:25.798Z,90.40
2018-06-29T20:31:56.951Z,90.50
2018-06-29T20:34:28.482Z,90.60
2018-06-29T20:36:59.855Z,90.80
2018-06-29T20:39:30.902Z,90.80
2018-06-29T20:42:02.507Z,90.80
2018-06-29T20:47:04.299Z,90.90
2018-06-29T20:49:35.862Z,91.10
2018-06-29T20:52:07.135Z,91.10
2018-06-29T20:54:38.503Z,91.10
2018-06-29T20:57:09.990Z,91.00
2018-06-29T20:59:41.300Z,91.10
2018-06-29T21:02:12.252Z,91.10
2018-06-29T21:07:14.246Z,91.20
2018-06-29T21:12:16.092Z,91.20
2018-06-29T21:14:47.216Z,91.10
2018-06-29T21:17:18.529Z,91.10
2018-06-29T21:19:49.644Z,91.20
2018-06-29T21:22:20.704Z,91.40
2018-06-29T21:24:52.187Z,91.40
2018-06-29T21:29:53.832Z,91.50
2018-06-29T21:32:24.903Z,91.50
2018-06-29T21:34:56.234Z,91.60
2018-06-29T21:37:27.120Z,91.60
2018-06-29T21:39:58.540Z,91.80
2018-06-29T21:42:29.792Z,91.80
2018-06-29T21:45:00.993Z,91.90
2018-06-29T21:47:32.091Z,92.00
2018-06-29T21:50:03.404Z,92.00
2018-06-29T21:52:35.023Z,92.10
2018-06-29T21:55:06.696Z,92.20
2018-06-29T21:57:37.888Z,92.30
2018-06-29T22:00:12.844Z,92.40
2018-06-29T22:02:43.760Z,92.60
2018-06-29T22:05:15.251Z,92.60
2018-06-29T22:07:46.487Z,92.90
2018-06-29T22:10:17.821Z,92.90
2018-06-29T22:12:48.947Z,92.90
2018-06-29T22:17:54.969Z,93.10
2018-06-29T22:20:26.278Z,93.30
2018-06-29T22:22:57.442Z,93.60
2018-06-29T22:25:28.948Z,93.80
2018-06-29T22:28:00.273Z,93.50
2018-06-29T22:30:31.379Z,93.70
2018-06-29T22:33:03.472Z,93.70
2018-06-29T22:35:34.352Z,93.80
2018-06-29T22:38:05.644Z,94.00
2018-06-29T22:40:36.756Z,94.40
2018-06-29T22:43:08.251Z,94.00
2018-06-29T22:45:40.153Z,94.40
2018-06-29T22:48:11.078Z,94.30
2018-06-29T22:50:42.599Z,94.50
2018-06-29T22:53:13.697Z,94.90
2018-06-29T22:55:44.872Z,95.40
2018-06-29T22:58:16.016Z,95.70
2018-06-29T23:00:47.323Z,95.50
2018-06-29T23:03:18.445Z,95.70
2018-06-29T23:05:49.634Z,96.20
2018-06-29T23:08:20.637Z,96.50
2018-06-29T23:10:51.811Z,96.60
2018-06-29T23:13:22.813Z,97.00
2018-06-29T23:15:53.990Z,96.80
2018-06-29T23:18:25.170Z,96.50
2018-06-29T23:23:27.344Z,97.30
2018-06-29T23:25:58.580Z,97.50
2018-06-29T23:28:29.941Z,97.60
2018-06-29T23:31:01.599Z,98.00
2018-06-29T23:33:32.479Z,98.50
2018-06-29T23:36:03.624Z,98.80
2018-06-29T23:38:34.539Z,99.00
2018-06-29T23:41:05.792Z,98.70
2018-06-29T23:43:36.705Z,99.40
2018-06-29T23:46:07.720Z,99.10
2018-06-29T23:48:38.711Z,99.30
2018-06-29T23:51:10.048Z,99.50
2018-06-29T23:53:41.310Z,99.90
2018-06-29T23:58:44.005Z,99.90
